Time;durP1;ratioP1;P1;durP2;ratioP2;P2;SDS_P1;SDS_P2;PMS_P1;PMS_P2;Temp;Humidity;BMP_temperature;BMP_pressure;BME280_temperature;BME280_humidity;BME280_pressure;Samples;Min_cycle;Max_cycle;Signal;HPM_P1;HPM_P2
2023/12/23 00:01:23;;;;;;;;;;;7.10;99.90;;;;;;5065532;28;20253;-69
2023/12/23 00:03:50;;;;;;;;;;;7.00;99.90;;;;;;5065586;28;19980;-70
2023/12/23 00:06:18;;;;;;;;;;;7.00;99.90;;;;;;5065799;28;19943;-70
2023/12/23 00:08:45;;;;;;;;;;;7.00;99.90;;;;;;5065305;28;20256;-69
2023/12/23 00:11:11;;;;;;;;;;;7.10;99.90;;;;;;5065361;28;19985;-69
2023/12/23 00:13:38;;;;;;;;;;;7.10;99.90;;;;;;5064926;28;20234;-69
2023/12/23 00:16:05;;;;;;;;;;;7.10;99.90;;;;;;5065479;28;19940;-70
2023/12/23 00:18:31;;;;;;;;;;;7.20;99.90;;;;;;5065442;28;19921;-69
2023/12/23 00:20:58;;;;;;;;;;;7.20;99.90;;;;;;5065486;28;20143;-69
2023/12/23 00:23:26;;;;;;;;;;;7.20;99.90;;;;;;5065174;28;19920;-69
2023/12/23 00:25:51;;;;;;;;;;;7.20;99.90;;;;;;5065507;28;19963;-70
2023/12/23 00:28:18;;;;;;;;;;;7.20;99.90;;;;;;5065282;28;19916;-70
2023/12/23 00:30:44;;;;;;;;;;;7.30;99.90;;;;;;5065117;28;20007;-70
2023/12/23 00:33:11;;;;;;;;;;;7.30;99.90;;;;;;5065204;28;19983;-70
2023/12/23 00:35:38;;;;;;;;;;;7.30;99.90;;;;;;5065266;28;19956;-70
2023/12/23 00:38:04;;;;;;;;;;;7.30;99.90;;;;;;5064919;28;19921;-69
2023/12/23 00:40:32;;;;;;;;;;;7.40;99.90;;;;;;5065158;28;19984;-69
2023/12/23 00:42:59;;;;;;;;;;;7.30;99.90;;;;;;5064916;28;19984;-69
2023/12/23 00:45:25;;;;;;;;;;;7.40;99.90;;;;;;5056527;28;20241;-69
2023/12/23 00:47:52;;;;;;;;;;;7.40;99.90;;;;;;5064496;28;19920;-69
2023/12/23 00:50:19;;;;;;;;;;;7.40;99.90;;;;;;5064764;28;19991;-70
2023/12/23 00:52:45;;;;;;;;;;;7.40;99.90;;;;;;5064616;28;19987;-70
2023/12/23 00:55:12;;;;;;;;;;;7.40;99.90;;;;;;5064815;28;19921;-69
2023/12/23 00:57:40;;;;;;;;;;;7.40;99.90;;;;;;5056740;28;19952;-71
2023/12/23 01:00:07;;;;;;;;;;;7.40;99.90;;;;;;5064805;28;20153;-69
2023/12/23 01:02:34;;;;;;;;;;;7.40;99.90;;;;;;5064066;28;20215;-70
2023/12/23 01:05:00;;;;;;;;;;;7.40;99.90;;;;;;5064509;28;19992;-69
2023/12/23 01:07:28;;;;;;;;;;;7.40;99.90;;;;;;5063466;28;20117;-69
2023/12/23 01:09:54;;;;;;;;;;;7.30;99.90;;;;;;5062903;28;19965;-69
2023/12/23 01:12:21;;;;;;;;;;;7.40;99.90;;;;;;5064384;28;19984;-69
2023/12/23 01:14:49;;;;;;;;;;;7.30;99.90;;;;;;5063998;28;19952;-69
2023/12/23 01:17:16;;;;;;;;;;;7.30;99.90;;;;;;5063472;28;20272;-70
2023/12/23 01:19:42;;;;;;;;;;;7.30;99.90;;;;;;5064331;28;19927;-69
2023/12/23 01:22:09;;;;;;;;;;;7.30;99.90;;;;;;5064263;28;20202;-69
2023/12/23 01:24:35;;;;;;;;;;;7.20;99.90;;;;;;5063800;28;19920;-70
2023/12/23 01:27:02;;;;;;;;;;;7.20;99.90;;;;;;5064078;28;19963;-69
2023/12/23 01:29:29;;;;;;;;;;;7.10;99.90;;;;;;5064041;28;19963;-69
2023/12/23 01:31:57;;;;;;;;;;;7.10;99.90;;;;;;5064102;28;19956;-69
2023/12/23 01:34:24;;;;;;;;;;;6.90;99.90;;;;;;5063892;28;19920;-70
2023/12/23 01:36:50;;;;;;;;;;;6.40;99.90;;;;;;5063790;28;19956;-69
2023/12/23 01:39:18;;;;;;;;;;;6.00;99.90;;;;;;5063909;28;19921;-69
2023/12/23 01:41:44;;;;;;;;;;;5.70;99.90;;;;;;5063900;28;19991;-70
2023/12/23 01:44:11;;;;;;;;;;;5.50;99.90;;;;;;5063762;28;20121;-69
2023/12/23 01:46:38;;;;;;;;;;;5.50;99.90;;;;;;5064098;28;19952;-69
2023/12/23 01:49:06;;;;;;;;;;;5.40;99.90;;;;;;5063881;28;19988;-70
2023/12/23 01:51:33;;;;;;;;;;;5.40;99.90;;;;;;5062585;28;19956;-69
2023/12/23 01:54:04;;;;;;;;;;;5.50;99.90;;;;;;5063334;28;19956;-69
2023/12/23 01:56:31;;;;;;;;;;;5.50;99.90;;;;;;5063487;28;19933;-69
2023/12/23 01:59:00;;;;;;;;;;;5.50;99.90;;;;;;5063378;28;20278;-69
2023/12/23 02:01:26;;;;;;;;;;;5.60;99.90;;;;;;5063535;28;20322;-69
2023/12/23 02:03:53;;;;;;;;;;;5.50;99.90;;;;;;5063408;28;19980;-69
2023/12/23 02:06:21;;;;;;;;;;;5.50;99.90;;;;;;5063293;28;19920;-69
2023/12/23 02:08:48;;;;;;;;;;;5.60;99.90;;;;;;5063308;28;19921;-69
2023/12/23 02:11:20;;;;;;;;;;;5.60;99.90;;;;;;5063425;28;20278;-69
2023/12/23 02:13:52;;;;;;;;;;;5.60;99.90;;;;;;5063156;28;19921;-69
2023/12/23 02:16:19;;;;;;;;;;;5.60;99.90;;;;;;5063395;28;19924;-69
2023/12/23 02:18:46;;;;;;;;;;;5.60;99.90;;;;;;5063085;28;20253;-69
2023/12/23 02:21:14;;;;;;;;;;;5.60;99.90;;;;;;5063308;28;19962;-69
2023/12/23 02:23:40;;;;;;;;;;;5.50;99.90;;;;;;5063106;28;20000;-69
2023/12/23 02:26:09;;;;;;;;;;;5.50;99.90;;;;;;5063357;28;19927;-69
2023/12/23 02:28:36;;;;;;;;;;;5.50;99.90;;;;;;5063172;28;19979;-69
2023/12/23 02:31:03;;;;;;;;;;;5.50;99.90;;;;;;5063185;28;20194;-69
2023/12/23 02:33:29;;;;;;;;;;;5.60;99.90;;;;;;5063053;28;19963;-69
2023/12/23 02:35:56;;;;;;;;;;;5.50;99.90;;;;;;5063206;28;19980;-69
2023/12/23 02:38:24;;;;;;;;;;;5.50;99.90;;;;;;5063029;28;19920;-70
2023/12/23 02:40:50;;;;;;;;;;;5.60;99.90;;;;;;5062965;28;19960;-69
2023/12/23 02:43:17;;;;;;;;;;;5.60;99.90;;;;;;5062541;28;19921;-69
2023/12/23 02:45:44;;;;;;;;;;;5.60;99.90;;;;;;5063088;28;20177;-69
2023/12/23 02:48:11;;;;;;;;;;;5.60;99.90;;;;;;5059530;28;19921;-69
2023/12/23 02:50:37;;;;;;;;;;;5.70;99.90;;;;;;5062921;28;19991;-69
2023/12/23 02:53:07;;;;;;;;;;;5.60;99.90;;;;;;5062814;28;19927;-69
2023/12/23 02:55:36;;;;;;;;;;;5.70;99.90;;;;;;5063067;28;19929;-69
2023/12/23 02:58:02;;;;;;;;;;;5.70;99.90;;;;;;5062947;28;19956;-69
2023/12/23 03:00:29;;;;;;;;;;;5.70;99.90;;;;;;5062468;28;19960;-69
2023/12/23 03:02:57;;;;;;;;;;;5.70;99.90;;;;;;5065475;28;19984;-69
2023/12/23 03:05:23;;;;;;;;;;;5.70;99.90;;;;;;5065635;28;19928;-69
2023/12/23 03:07:50;;;;;;;;;;;5.70;99.90;;;;;;5066231;28;19927;-69
2023/12/23 03:10:17;;;;;;;;;;;5.70;99.90;;;;;;5063825;28;19921;-69
2023/12/23 03:12:45;;;;;;;;;;;5.70;99.90;;;;;;5066691;28;20330;-69
2023/12/23 03:15:12;;;;;;;;;;;5.70;99.90;;;;;;5066343;28;19960;-69
2023/12/23 03:17:39;;;;;;;;;;;5.70;99.90;;;;;;5066722;28;19963;-70
2023/12/23 03:20:06;;;;;;;;;;;5.70;99.90;;;;;;5066604;28;19921;-69
2023/12/23 03:22:33;;;;;;;;;;;5.70;99.90;;;;;;5065945;28;20241;-70
2023/12/23 03:24:59;;;;;;;;;;;5.70;99.90;;;;;;5066559;28;19921;-69
2023/12/23 03:27:26;;;;;;;;;;;5.70;99.90;;;;;;5066168;28;19920;-69
2023/12/23 03:29:54;;;;;;;;;;;5.70;99.90;;;;;;5066334;28;19927;-69
2023/12/23 03:32:20;;;;;;;;;;;5.70;99.90;;;;;;5065130;28;20341;-70
2023/12/23 03:34:47;;;;;;;;;;;5.70;99.90;;;;;;5059489;28;19956;-69
2023/12/23 03:37:14;;;;;;;;;;;5.80;99.90;;;;;;5066242;28;19979;-69
2023/12/23 03:39:40;;;;;;;;;;;5.70;99.90;;;;;;5066299;28;19952;-69
2023/12/23 03:42:07;;;;;;;;;;;5.70;99.90;;;;;;5065878;28;19980;-69
2023/12/23 03:44:33;;;;;;;;;;;5.70;99.90;;;;;;5065836;28;20051;-69
2023/12/23 03:47:01;;;;;;;;;;;5.80;99.90;;;;;;5065675;28;19984;-70
2023/12/23 03:49:28;;;;;;;;;;;5.80;99.90;;;;;;5065821;28;19963;-69
2023/12/23 03:51:55;;;;;;;;;;;5.80;99.90;;;;;;5066006;28;20035;-69
2023/12/23 03:54:21;;;;;;;;;;;5.80;99.90;;;;;;5065790;28;19927;-69
2023/12/23 03:56:48;;;;;;;;;;;5.80;99.90;;;;;;5065902;28;19937;-69
2023/12/23 03:59:14;;;;;;;;;;;5.80;99.90;;;;;;5065757;28;20289;-69
2023/12/23 04:01:43;;;;;;;;;;;5.80;99.90;;;;;;5065918;28;19985;-69
2023/12/23 04:04:11;;;;;;;;;;;5.80;99.90;;;;;;5065297;28;20233;-69
2023/12/23 04:06:38;;;;;;;;;;;5.90;99.90;;;;;;5065450;28;20234;-70
2023/12/23 04:09:04;;;;;;;;;;;5.80;99.90;;;;;;5065729;28;19979;-69
2023/12/23 04:11:31;;;;;;;;;;;5.90;99.90;;;;;;5065493;28;19927;-69
2023/12/23 04:13:57;;;;;;;;;;;6.00;99.90;;;;;;5064398;28;19976;-69
2023/12/23 04:16:24;;;;;;;;;;;6.00;99.90;;;;;;5065462;28;19921;-68
2023/12/23 04:18:51;;;;;;;;;;;6.00;99.90;;;;;;5065060;28;19921;-69
2023/12/23 04:21:18;;;;;;;;;;;6.00;99.90;;;;;;5064987;28;19927;-69
2023/12/23 04:23:45;;;;;;;;;;;6.10;99.90;;;;;;5065438;28;19991;-69
2023/12/23 04:26:14;;;;;;;;;;;6.10;99.90;;;;;;5065229;28;19927;-70
2023/12/23 04:28:41;;;;;;;;;;;6.20;99.90;;;;;;5057404;28;19925;-69
2023/12/23 04:31:07;;;;;;;;;;;6.20;99.90;;;;;;5065338;28;19927;-69
2023/12/23 04:33:35;;;;;;;;;;;6.20;99.90;;;;;;5065120;28;20147;-68
2023/12/23 04:36:01;;;;;;;;;;;6.30;99.90;;;;;;5065312;28;19921;-69
2023/12/23 04:38:29;;;;;;;;;;;6.30;99.90;;;;;;5064707;28;19988;-69
2023/12/23 04:40:56;;;;;;;;;;;6.30;99.90;;;;;;5065217;28;19948;-69
2023/12/23 04:43:22;;;;;;;;;;;6.30;99.90;;;;;;5064874;28;20177;-68
2023/12/23 04:45:49;;;;;;;;;;;6.40;99.90;;;;;;5065155;28;19927;-69
2023/12/23 04:48:16;;;;;;;;;;;6.40;99.90;;;;;;5064507;28;19963;-69
2023/12/23 04:50:42;;;;;;;;;;;6.40;99.90;;;;;;5064473;28;19921;-69
2023/12/23 04:53:09;;;;;;;;;;;6.40;99.90;;;;;;5064621;28;19921;-69
2023/12/23 04:55:37;;;;;;;;;;;6.40;99.90;;;;;;5064839;28;19921;-70
2023/12/23 04:58:04;;;;;;;;;;;6.40;99.90;;;;;;5056049;28;19988;-69
2023/12/23 05:00:31;;;;;;;;;;;6.40;99.90;;;;;;5064583;28;19987;-69
2023/12/23 05:02:57;;;;;;;;;;;6.40;99.90;;;;;;5064179;28;19987;-69
2023/12/23 05:05:25;;;;;;;;;;;6.40;99.90;;;;;;5064622;28;20007;-70
2023/12/23 05:07:51;;;;;;;;;;;6.40;99.90;;;;;;5059453;28;19936;-69
2023/12/23 05:10:18;;;;;;;;;;;6.50;99.90;;;;;;5047786;28;19983;-69
2023/12/23 05:12:46;;;;;;;;;;;6.50;99.90;;;;;;5050544;28;20004;-70
2023/12/23 05:15:12;;;;;;;;;;;6.40;99.90;;;;;;5047723;28;19987;-69
2023/12/23 05:17:39;;;;;;;;;;;6.50;99.90;;;;;;5047193;28;19987;-69
2023/12/23 05:20:07;;;;;;;;;;;6.50;99.90;;;;;;5046875;28;19927;-70
2023/12/23 05:22:34;;;;;;;;;;;6.40;99.90;;;;;;5045415;28;19932;-69
2023/12/23 05:25:01;;;;;;;;;;;6.50;99.90;;;;;;5048091;28;19995;-69
2023/12/23 05:27:28;;;;;;;;;;;6.40;99.90;;;;;;5046190;28;19936;-70
2023/12/23 05:29:57;;;;;;;;;;;6.40;99.90;;;;;;5050214;28;20088;-69
2023/12/23 05:32:24;;;;;;;;;;;6.40;99.90;;;;;;5052929;28;19992;-69
2023/12/23 05:34:50;;;;;;;;;;;6.40;99.90;;;;;;5046098;28;19971;-69
2023/12/23 05:37:17;;;;;;;;;;;6.40;99.90;;;;;;5047283;28;21010;-69
2023/12/23 05:39:47;;;;;;;;;;;6.40;99.90;;;;;;5045377;28;19921;-69
2023/12/23 05:42:14;;;;;;;;;;;6.50;99.90;;;;;;5048223;28;20125;-70
2023/12/23 05:44:41;;;;;;;;;;;6.40;99.90;;;;;;5046903;28;20262;-69
2023/12/23 05:47:09;;;;;;;;;;;6.40;99.90;;;;;;5046261;28;20009;-69
2023/12/23 05:49:35;;;;;;;;;;;6.40;99.90;;;;;;5046814;28;20254;-69
2023/12/23 05:52:02;;;;;;;;;;;6.40;99.90;;;;;;5046886;28;19935;-69
2023/12/23 05:54:28;;;;;;;;;;;6.40;99.90;;;;;;5047224;28;19980;-69
2023/12/23 05:56:55;;;;;;;;;;;6.40;99.90;;;;;;5048846;28;19959;-69
2023/12/23 05:59:22;;;;;;;;;;;6.40;99.90;;;;;;5046215;28;19980;-71
2023/12/23 06:01:48;;;;;;;;;;;6.40;99.90;;;;;;5045775;28;19920;-69
2023/12/23 06:04:17;;;;;;;;;;;6.40;99.90;;;;;;5048562;28;20154;-69
2023/12/23 06:06:43;;;;;;;;;;;6.40;99.90;;;;;;5056034;28;20027;-69
2023/12/23 06:09:10;;;;;;;;;;;6.40;99.90;;;;;;5053419;28;19920;-69
2023/12/23 06:11:37;;;;;;;;;;;6.40;99.90;;;;;;5054365;28;19927;-69
2023/12/23 06:14:03;;;;;;;;;;;6.40;99.90;;;;;;5062999;28;19956;-69
2023/12/23 06:16:30;;;;;;;;;;;6.40;99.90;;;;;;5061445;28;19921;-70
2023/12/23 06:18:57;;;;;;;;;;;6.40;99.90;;;;;;5062212;28;20176;-70
2023/12/23 06:21:25;;;;;;;;;;;6.40;99.90;;;;;;5061964;28;19920;-69
2023/12/23 06:23:51;;;;;;;;;;;6.40;99.90;;;;;;5056911;28;19963;-69
2023/12/23 06:26:18;;;;;;;;;;;6.40;99.90;;;;;;5060026;28;19920;-70
2023/12/23 06:28:44;;;;;;;;;;;6.40;99.90;;;;;;5058883;28;19985;-69
2023/12/23 06:31:11;;;;;;;;;;;6.30;99.90;;;;;;5059810;28;19921;-70
2023/12/23 06:33:38;;;;;;;;;;;6.30;99.90;;;;;;5061378;28;20015;-69
2023/12/23 06:36:05;;;;;;;;;;;6.30;99.90;;;;;;5057247;28;19921;-70
2023/12/23 06:38:33;;;;;;;;;;;6.30;99.90;;;;;;5069432;28;20174;-70
2023/12/23 06:40:59;;;;;;;;;;;6.30;99.90;;;;;;5063142;28;19953;-70
2023/12/23 06:43:26;;;;;;;;;;;6.30;99.90;;;;;;5064329;28;19921;-70
2023/12/23 06:45:53;;;;;;;;;;;6.30;99.90;;;;;;5058332;28;19952;-70
2023/12/23 06:48:20;;;;;;;;;;;6.30;99.90;;;;;;5068647;28;19921;-69
2023/12/23 06:50:46;;;;;;;;;;;6.30;99.90;;;;;;5062025;28;19956;-70
2023/12/23 06:53:13;;;;;;;;;;;6.30;99.90;;;;;;5067753;28;19920;-70
2023/12/23 06:55:41;;;;;;;;;;;6.30;99.90;;;;;;5069788;28;19921;-70
2023/12/23 06:58:08;;;;;;;;;;;6.30;99.90;;;;;;5064716;28;19952;-69
2023/12/23 07:00:34;;;;;;;;;;;6.30;99.90;;;;;;5066980;28;19928;-70
2023/12/23 07:03:01;;;;;;;;;;;6.30;99.90;;;;;;5069415;28;19921;-69
2023/12/23 07:05:28;;;;;;;;;;;6.40;99.90;;;;;;5068966;28;19996;-69
2023/12/23 07:07:54;;;;;;;;;;;6.40;99.90;;;;;;5069359;28;20285;-69
2023/12/23 07:10:21;;;;;;;;;;;6.30;99.90;;;;;;5067929;28;20409;-69
2023/12/23 07:12:49;;;;;;;;;;;6.40;99.90;;;;;;5062934;28;19921;-69
2023/12/23 07:15:15;;;;;;;;;;;6.40;99.90;;;;;;5052624;28;20178;-69
2023/12/23 07:17:42;;;;;;;;;;;6.40;99.90;;;;;;5052565;28;19928;-69
2023/12/23 07:20:09;;;;;;;;;;;6.40;99.90;;;;;;5053621;28;19939;-69
2023/12/23 07:22:36;;;;;;;;;;;6.40;99.90;;;;;;5050858;28;19944;-68
2023/12/23 07:25:03;;;;;;;;;;;6.40;99.90;;;;;;5064116;28;19984;-70
2023/12/23 07:27:30;;;;;;;;;;;6.40;99.90;;;;;;5056321;28;19920;-70
2023/12/23 07:29:58;;;;;;;;;;;6.40;99.90;;;;;;5064293;28;19927;-69
2023/12/23 07:32:25;;;;;;;;;;;6.40;99.90;;;;;;5067652;28;19921;-69
2023/12/23 07:34:52;;;;;;;;;;;6.40;99.90;;;;;;5062604;28;19925;-68
2023/12/23 07:37:18;;;;;;;;;;;6.40;99.90;;;;;;5052273;28;19928;-69
2023/12/23 07:39:45;;;;;;;;;;;6.40;99.90;;;;;;5067121;28;19927;-69
2023/12/23 07:42:12;;;;;;;;;;;6.40;99.90;;;;;;5062081;28;19989;-70
2023/12/23 07:44:39;;;;;;;;;;;6.40;99.90;;;;;;5060357;28;19952;-68
2023/12/23 07:47:09;;;;;;;;;;;6.40;99.90;;;;;;5062041;28;19948;-70
2023/12/23 07:49:36;;;;;;;;;;;6.40;99.90;;;;;;5064006;28;19921;-68
2023/12/23 07:52:03;;;;;;;;;;;6.40;99.90;;;;;;5062605;28;19921;-70
2023/12/23 07:54:29;;;;;;;;;;;6.50;99.90;;;;;;5055367;28;20184;-68
2023/12/23 07:56:56;;;;;;;;;;;6.50;99.90;;;;;;5053858;28;19921;-69
2023/12/23 07:59:23;;;;;;;;;;;6.50;99.90;;;;;;5063201;28;19956;-69
2023/12/23 08:01:49;;;;;;;;;;;6.50;99.90;;;;;;5065787;28;19920;-69
2023/12/23 08:04:17;;;;;;;;;;;6.50;99.90;;;;;;5057267;28;19984;-69
2023/12/23 08:06:44;;;;;;;;;;;6.50;99.90;;;;;;5060591;28;19949;-69
2023/12/23 08:09:11;;;;;;;;;;;6.50;99.90;;;;;;5061467;28;19986;-69
2023/12/23 08:11:37;;;;;;;;;;;6.50;99.90;;;;;;5065587;28;19931;-69
2023/12/23 08:14:03;;;;;;;;;;;6.50;99.90;;;;;;5060994;28;19921;-70
2023/12/23 08:16:30;;;;;;;;;;;6.50;99.90;;;;;;5058372;28;19925;-69
2023/12/23 08:18:57;;;;;;;;;;;6.50;99.90;;;;;;5052746;28;20081;-69
2023/12/23 08:21:25;;;;;;;;;;;6.60;99.90;;;;;;5047632;28;19921;-69
2023/12/23 08:23:51;;;;;;;;;;;6.60;99.90;;;;;;5048552;28;19957;-70
2023/12/23 08:26:18;;;;;;;;;;;6.60;99.90;;;;;;5047061;28;20091;-69
2023/12/23 08:28:45;;;;;;;;;;;6.60;99.90;;;;;;5048257;28;19928;-69
2023/12/23 08:31:12;;;;;;;;;;;6.60;99.90;;;;;;5053521;28;19943;-69
2023/12/23 08:33:38;;;;;;;;;;;6.60;99.90;;;;;;5064877;28;19987;-68
2023/12/23 08:36:05;;;;;;;;;;;6.60;99.90;;;;;;5065567;28;19952;-68
2023/12/23 08:38:33;;;;;;;;;;;6.60;99.90;;;;;;5064984;28;19921;-68
2023/12/23 08:41:00;;;;;;;;;;;6.60;99.90;;;;;;5062879;28;19979;-68
2023/12/23 08:43:26;;;;;;;;;;;6.60;99.90;;;;;;5064413;28;19983;-68
2023/12/23 08:45:53;;;;;;;;;;;6.60;99.90;;;;;;5063986;28;19959;-68
2023/12/23 08:48:20;;;;;;;;;;;6.60;99.90;;;;;;5063537;28;19921;-70
2023/12/23 08:50:46;;;;;;;;;;;6.60;99.90;;;;;;5060021;28;19983;-69
2023/12/23 08:53:14;;;;;;;;;;;6.60;99.90;;;;;;5054618;28;19928;-69
2023/12/23 08:55:44;;;;;;;;;;;6.60;99.90;;;;;;5058434;28;19999;-68
2023/12/23 08:58:10;;;;;;;;;;;6.60;99.90;;;;;;5063889;28;19927;-69
2023/12/23 09:00:37;;;;;;;;;;;6.60;99.90;;;;;;5060659;28;20170;-68
2023/12/23 09:03:04;;;;;;;;;;;6.60;99.90;;;;;;5047463;28;20326;-69
2023/12/23 09:05:30;;;;;;;;;;;6.60;99.90;;;;;;5050492;28;20253;-69
2023/12/23 09:07:57;;;;;;;;;;;6.60;99.90;;;;;;5050540;28;19979;-69
2023/12/23 09:10:24;;;;;;;;;;;6.60;99.90;;;;;;5048406;28;20218;-69
2023/12/23 09:12:51;;;;;;;;;;;6.60;99.90;;;;;;5056718;28;19980;-68
2023/12/23 09:15:18;;;;;;;;;;;6.60;99.90;;;;;;5053378;28;19963;-69
2023/12/23 09:17:45;;;;;;;;;;;6.60;99.90;;;;;;5064222;28;20139;-69
2023/12/23 09:20:12;;;;;;;;;;;6.50;99.90;;;;;;5057782;28;19927;-69
2023/12/23 09:22:38;;;;;;;;;;;6.50;99.90;;;;;;5053479;28;19952;-68
2023/12/23 09:25:05;;;;;;;;;;;6.60;99.90;;;;;;5058803;28;20084;-69
2023/12/23 09:27:32;;;;;;;;;;;6.50;99.90;;;;;;5057904;28;19978;-68
2023/12/23 09:30:00;;;;;;;;;;;6.60;99.90;;;;;;5062755;28;19921;-68
2023/12/23 09:32:26;;;;;;;;;;;6.60;99.90;;;;;;5051447;28;19987;-69
2023/12/23 09:34:54;;;;;;;;;;;6.60;99.90;;;;;;5055582;28;20007;-71
2023/12/23 09:37:20;;;;;;;;;;;6.60;99.90;;;;;;5057901;28;19927;-71
2023/12/23 09:39:47;;;;;;;;;;;6.60;99.90;;;;;;5063093;28;19927;-72
2023/12/23 09:42:14;;;;;;;;;;;6.60;99.90;;;;;;5053537;28;19992;-70
2023/12/23 09:44:41;;;;;;;;;;;6.50;99.90;;;;;;5061322;28;19921;-68
2023/12/23 09:47:09;;;;;;;;;;;6.60;99.90;;;;;;5057241;28;19960;-69
2023/12/23 09:49:36;;;;;;;;;;;6.50;99.90;;;;;;5045543;28;20031;-69
2023/12/23 09:52:03;;;;;;;;;;;6.60;99.90;;;;;;5049483;28;20211;-69
2023/12/23 09:54:33;;;;;;;;;;;6.60;99.90;;;;;;5046731;28;19948;-68
2023/12/23 09:57:00;;;;;;;;;;;6.60;99.90;;;;;;5048967;28;19948;-70
2023/12/23 09:59:27;;;;;;;;;;;6.60;99.90;;;;;;5047606;28;20293;-70
2023/12/23 10:01:54;;;;;;;;;;;6.60;99.90;;;;;;5056157;28;19963;-69
2023/12/23 10:04:22;;;;;;;;;;;6.60;99.90;;;;;;5061421;28;19925;-70
2023/12/23 10:06:52;;;;;;;;;;;6.60;99.90;;;;;;5054357;28;20277;-69
2023/12/23 10:09:18;;;;;;;;;;;6.70;99.90;;;;;;5058934;28;20250;-70
2023/12/23 10:11:45;;;;;;;;;;;6.60;99.90;;;;;;5062615;28;19928;-69
2023/12/23 10:14:12;;;;;;;;;;;6.60;99.90;;;;;;5053734;28;19997;-69
2023/12/23 10:16:41;;;;;;;;;;;6.60;99.90;;;;;;5060491;28;19982;-69
2023/12/23 10:19:08;;;;;;;;;;;6.60;99.90;;;;;;5053893;28;19921;-69
2023/12/23 10:21:36;;;;;;;;;;;6.60;99.90;;;;;;5052987;28;20123;-69
2023/12/23 10:24:03;;;;;;;;;;;6.60;99.90;;;;;;5056629;28;20175;-69
2023/12/23 10:26:30;;;;;;;;;;;6.60;99.90;;;;;;5060996;28;19928;-70
2023/12/23 10:28:58;;;;;;;;;;;6.60;99.90;;;;;;5057413;28;19927;-70
2023/12/23 10:31:26;;;;;;;;;;;6.60;99.90;;;;;;5048008;28;19959;-70
2023/12/23 10:33:55;;;;;;;;;;;6.60;99.90;;;;;;5055568;28;19964;-69
2023/12/23 10:36:23;;;;;;;;;;;6.60;99.90;;;;;;5054074;28;19952;-70
2023/12/23 10:38:54;;;;;;;;;;;6.50;99.90;;;;;;5058478;28;19980;-69
2023/12/23 10:41:30;;;;;;;;;;;6.60;99.90;;;;;;5063437;28;19980;-69
2023/12/23 10:43:57;;;;;;;;;;;6.60;99.90;;;;;;5063398;28;19996;-70
2023/12/23 10:46:24;;;;;;;;;;;6.60;99.90;;;;;;5059306;28;19925;-70
2023/12/23 10:48:51;;;;;;;;;;;6.60;99.90;;;;;;5060621;28;19978;-69
2023/12/23 10:51:19;;;;;;;;;;;6.60;99.90;;;;;;5056022;28;19959;-69
2023/12/23 10:53:46;;;;;;;;;;;6.60;99.90;;;;;;5060561;28;19964;-68
2023/12/23 10:56:15;;;;;;;;;;;6.60;99.90;;;;;;5062108;28;19921;-69
2023/12/23 10:58:43;;;;;;;;;;;6.60;99.90;;;;;;5055415;28;19983;-68
2023/12/23 11:01:12;;;;;;;;;;;6.60;99.90;;;;;;5055645;28;19991;-68
2023/12/23 11:03:38;;;;;;;;;;;6.60;99.90;;;;;;5061408;28;19988;-69
2023/12/23 11:06:07;;;;;;;;;;;6.60;99.90;;;;;;5059256;28;19953;-69
2023/12/23 11:08:34;;;;;;;;;;;6.60;99.90;;;;;;5059890;28;20091;-69
2023/12/23 11:11:01;;;;;;;;;;;6.60;99.90;;;;;;5061424;28;19921;-68
2023/12/23 11:13:29;;;;;;;;;;;6.60;99.90;;;;;;5054069;28;20000;-70
2023/12/23 11:15:56;;;;;;;;;;;6.70;99.90;;;;;;5057881;28;19987;-70
2023/12/23 11:18:23;;;;;;;;;;;6.70;99.90;;;;;;5053814;28;19936;-71
2023/12/23 11:20:50;;;;;;;;;;;6.70;99.90;;;;;;5045045;28;19935;-68
2023/12/23 11:23:37;;;;;;;;;;;6.70;99.90;;;;;;5049054;28;21203;-70
2023/12/23 11:26:04;;;;;;;;;;;6.70;99.90;;;;;;5043776;28;19920;-70
2023/12/23 11:28:36;;;;;;;;;;;6.70;99.90;;;;;;5049077;28;19988;-70
2023/12/23 11:31:03;;;;;;;;;;;6.70;99.90;;;;;;5049241;28;20116;-70
2023/12/23 11:33:31;;;;;;;;;;;6.70;99.90;;;;;;5049391;28;19995;-70
2023/12/23 11:35:58;;;;;;;;;;;6.60;99.90;;;;;;5047735;28;19971;-70
2023/12/23 11:38:27;;;;;;;;;;;6.60;99.90;;;;;;5049074;28;19929;-70
2023/12/23 11:40:54;;;;;;;;;;;6.60;99.90;;;;;;5050851;28;19960;-70
2023/12/23 11:43:20;;;;;;;;;;;6.60;99.90;;;;;;5050428;28;20188;-70
2023/12/23 11:45:50;;;;;;;;;;;6.60;99.90;;;;;;5051212;28;19939;-70
2023/12/23 11:48:20;;;;;;;;;;;6.60;99.90;;;;;;5049293;28;20043;-70
2023/12/23 11:50:47;;;;;;;;;;;6.60;99.90;;;;;;5046103;28;20004;-69
2023/12/23 11:53:14;;;;;;;;;;;6.60;99.90;;;;;;5054175;28;19996;-69
2023/12/23 11:55:40;;;;;;;;;;;6.60;99.90;;;;;;5058724;28;19921;-69
2023/12/23 11:58:08;;;;;;;;;;;6.60;99.90;;;;;;5063187;28;20106;-68
2023/12/23 12:00:37;;;;;;;;;;;6.60;99.90;;;;;;5065491;28;19939;-69
2023/12/23 12:03:06;;;;;;;;;;;6.60;99.90;;;;;;5061537;28;19928;-69
2023/12/23 12:05:32;;;;;;;;;;;6.60;99.90;;;;;;5063136;28;19992;-69
2023/12/23 12:07:59;;;;;;;;;;;6.60;99.90;;;;;;5060846;28;19929;-69
2023/12/23 12:10:26;;;;;;;;;;;6.60;99.90;;;;;;5059035;28;19920;-69
2023/12/23 12:12:53;;;;;;;;;;;6.70;99.90;;;;;;5060028;28;19987;-69
2023/12/23 12:15:20;;;;;;;;;;;6.60;99.90;;;;;;5061338;28;19983;-70
2023/12/23 12:17:46;;;;;;;;;;;6.60;99.90;;;;;;5061729;28;19928;-69
2023/12/23 12:20:14;;;;;;;;;;;6.60;99.90;;;;;;5060120;28;19988;-69
2023/12/23 12:22:43;;;;;;;;;;;6.70;99.90;;;;;;5066376;28;19959;-70
2023/12/23 12:25:10;;;;;;;;;;;6.60;99.90;;;;;;5065034;28;20151;-69
2023/12/23 12:27:37;;;;;;;;;;;6.70;99.90;;;;;;5060097;28;19931;-69
2023/12/23 12:30:06;;;;;;;;;;;6.70;99.90;;;;;;5064170;28;20146;-69
2023/12/23 12:32:33;;;;;;;;;;;6.70;99.90;;;;;;5064118;28;19960;-69
2023/12/23 12:35:03;;;;;;;;;;;6.70;99.90;;;;;;5061740;28;19924;-69
2023/12/23 12:37:31;;;;;;;;;;;6.70;99.90;;;;;;5061153;28;19927;-69
2023/12/23 12:39:57;;;;;;;;;;;6.70;99.90;;;;;;5059313;28;19922;-70
2023/12/23 12:42:24;;;;;;;;;;;6.70;99.90;;;;;;5061542;28;20122;-70
2023/12/23 12:44:52;;;;;;;;;;;6.60;99.90;;;;;;5063995;28;19933;-69
2023/12/23 12:47:19;;;;;;;;;;;6.60;99.90;;;;;;5056539;28;19980;-69
2023/12/23 12:49:46;;;;;;;;;;;6.60;99.90;;;;;;5055948;28;19920;-68
2023/12/23 12:52:13;;;;;;;;;;;6.70;99.90;;;;;;5060644;28;20325;-70
2023/12/23 12:54:42;;;;;;;;;;;6.70;99.90;;;;;;5051041;28;19987;-69
2023/12/23 12:57:09;;;;;;;;;;;6.60;99.90;;;;;;5057776;28;19921;-70
2023/12/23 12:59:35;;;;;;;;;;;6.70;99.90;;;;;;5059763;28;19955;-71
2023/12/23 13:02:06;;;;;;;;;;;6.70;99.90;;;;;;5058119;28;19921;-69
2023/12/23 13:04:33;;;;;;;;;;;6.70;99.90;;;;;;5050826;28;20473;-71
2023/12/23 13:06:59;;;;;;;;;;;6.70;99.90;;;;;;5062625;28;19984;-70
2023/12/23 13:09:26;;;;;;;;;;;6.70;99.90;;;;;;5063239;28;19951;-70
2023/12/23 13:11:54;;;;;;;;;;;6.70;99.90;;;;;;5064474;28;20206;-70
2023/12/23 13:14:21;;;;;;;;;;;6.70;99.90;;;;;;5063851;28;19987;-70
2023/12/23 13:16:48;;;;;;;;;;;6.70;99.90;;;;;;5058762;28;19921;-70
2023/12/23 13:19:14;;;;;;;;;;;6.70;99.90;;;;;;5060979;28;20206;-70
2023/12/23 13:21:41;;;;;;;;;;;6.70;99.90;;;;;;5064265;28;19921;-70
2023/12/23 13:24:08;;;;;;;;;;;6.70;99.90;;;;;;5064047;28;20047;-69
2023/12/23 13:26:34;;;;;;;;;;;6.70;99.90;;;;;;5064008;28;19928;-70
2023/12/23 13:29:02;;;;;;;;;;;6.70;99.90;;;;;;5064306;28;19921;-71
2023/12/23 13:31:29;;;;;;;;;;;6.70;99.90;;;;;;5064101;28;19963;-71
2023/12/23 13:33:56;;;;;;;;;;;6.70;99.90;;;;;;5063845;28;19920;-71
2023/12/23 13:36:23;;;;;;;;;;;6.80;99.90;;;;;;5064080;28;19921;-71
2023/12/23 13:38:50;;;;;;;;;;;6.70;99.90;;;;;;5064124;28;19928;-71
2023/12/23 13:41:24;;;;;;;;;;;6.70;99.90;;;;;;5063812;28;20159;-70
2023/12/23 13:43:50;;;;;;;;;;;6.80;99.90;;;;;;5057422;28;19921;-70
2023/12/23 13:46:18;;;;;;;;;;;6.70;99.90;;;;;;5062758;28;20119;-71
2023/12/23 13:48:45;;;;;;;;;;;6.80;99.90;;;;;;5063846;28;19988;-71
2023/12/23 13:51:11;;;;;;;;;;;6.80;99.90;;;;;;5063449;28;19971;-71
2023/12/23 13:53:38;;;;;;;;;;;6.80;99.90;;;;;;5063262;28;19928;-71
2023/12/23 13:56:08;;;;;;;;;;;6.80;99.90;;;;;;5063702;28;20114;-71
2023/12/23 13:58:35;;;;;;;;;;;6.80;99.90;;;;;;5063383;28;19929;-70
2023/12/23 14:01:02;;;;;;;;;;;6.80;99.90;;;;;;5063662;28;19928;-71
2023/12/23 14:03:30;;;;;;;;;;;6.80;99.90;;;;;;5063577;28;19927;-71
2023/12/23 14:05:58;;;;;;;;;;;6.80;99.90;;;;;;5063305;28;20277;-71
2023/12/23 14:08:24;;;;;;;;;;;6.80;99.90;;;;;;5063116;28;19952;-71
2023/12/23 14:10:51;;;;;;;;;;;6.80;99.90;;;;;;5063128;28;19928;-71
2023/12/23 14:13:18;;;;;;;;;;;6.80;99.90;;;;;;5063266;28;19959;-71
2023/12/23 14:15:44;;;;;;;;;;;6.80;99.90;;;;;;5065160;28;19925;-72
2023/12/23 14:18:11;;;;;;;;;;;6.80;99.90;;;;;;5067060;28;19921;-71
2023/12/23 14:20:39;;;;;;;;;;;6.80;99.90;;;;;;5063228;28;19999;-71
2023/12/23 14:23:06;;;;;;;;;;;6.80;99.90;;;;;;5063332;28;19996;-71
2023/12/23 14:25:34;;;;;;;;;;;6.80;99.90;;;;;;5062336;28;20000;-71
2023/12/23 14:28:00;;;;;;;;;;;6.80;99.90;;;;;;5062728;28;19953;-71
2023/12/23 14:30:27;;;;;;;;;;;6.80;99.90;;;;;;5062380;28;19929;-72